Vernon, TX (76384)

4:11 AM CST on February 10, 2016 (GMT -0600)
Vernon | | Change Station
CLOSE
Current Station
Airport
Location: Vernon,
Elevation: 1266 ft
Nearby Weather Stations
Active Advisory: Fire Weather Watch

Elev 1266 ft 34.23 °N, 99.28 °W | Updated 16 minutes ago

Clear
Clear
32 °F
Feels Like 27 °F
N
6
Wind Variable Wind from WSW

Today
High -- | Low -- °F
--% Chance of Precip.
Yesterday
High -- | Low -- °F
Precip. -- in
Pressure 30.31 in
Visibility 10.0 miles
Clouds Clear
Windchill 27 °F
Dew Point 23 °F
Humidity 69%
Rainfall 0.00 in
Snow Depth Not available.
7:27 AM 6:15 PM
Waxing Crescent, 4% visible
METAR KF05 100955Z AUTO 25005KT 10SM CLR 00/M05 A3031 RMK AO1 T00021049
Pressure 30.31 in
Visibility 10.0 miles
Clouds Clear
Windchill 27 °F
Dew Point 23 °F
Humidity 69%
Rainfall 0.00 in
Snow Depth Not available.
7:27 AM 6:15 PM
Waxing Crescent, 4% visible
METAR KF05 100955Z AUTO 25005KT 10SM CLR 00/M05 A3031 RMK AO1 T00021049

10-Day Weather Forecast

Almanac

Astronomy

Feb. 10, 2016 Rise Set
Actual Time
Civil Twilight
Nautical Twilight
Astronomical Twilight
Moon
Length of Visible Light
Length of Day
Tomorrow will be .
, % of the Moon is Illuminated

Today's Extremes

State Highs State Lows

Community

WunderPhotos

Upload Photos

1,891,830 photos uploaded!

WunderBlog® & News

Nearby

Air Quality

  Air Quality AQ Index Pollutant
Not available.

Snow Depth

Station Depth Elevation

Earthquake Activity

City Distance Mag. Time & Date
Minimum magnitude displayed is 2.5.

Coastal Water Temperatures

Place Temperature

Stations

Nearby Weather Stations

Station Location Temp. Windchill Dew Point Humidity Wind Precip. Elev Updated Type
                   

Watches & Warnings

Fire Weather Watch
Issued: 8:59 PM CST Feb. 9, 2016 – National Weather Service

... Fire Weather Watch in effect from Wednesday morning through
Wednesday evening for breezy conditions... unseasonably warm
temperatures... and low relative humidity for parts of northern...
central... western... and southern Oklahoma as well as western
North Texas...

The National Weather Service in Norman has issued a Fire Weather
Watch... which is in effect from Wednesday morning through
Wednesday evening.

* Timing... 11 am to 7 PM.

* Wind... west to southwest 15 to 25 mph with gusts 20 to 30 mph.

* Humidity... 15 to 25 percent.

* Temperature... 65 to 80 degrees.

* Impacts... any fires that develop will likely spread rapidly.
Outdoor burning is not recommended.

Precautionary/preparedness actions...

Monitor weather forecasts and information.



Mbs